Time;durP1;ratioP1;P1;durP2;ratioP2;P2;SDS_P1;SDS_P2;PMS_P1;PMS_P2;Temp;Humidity;BMP_temperature;BMP_pressure;BME280_temperature;BME280_humidity;BME280_pressure;Samples;Min_cycle;Max_cycle;Signal;HPM_P1;HPM_P2
2022/10/31 00:02:25;;;;;;;;;;;;;;;12.28;73.45;101660.19;5074906;28;19916;-51
2022/10/31 00:04:50;;;;;;;;;;;;;;;12.27;73.55;101661.13;5072111;28;20398;-53
2022/10/31 00:07:15;;;;;;;;;;;;;;;12.25;73.35;101659.50;5070210;28;19975;-50
2022/10/31 00:09:41;;;;;;;;;;;;;;;12.22;73.48;101655.25;5073579;28;19926;-49
2022/10/31 00:12:06;;;;;;;;;;;;;;;12.22;73.39;101659.66;5062191;28;19970;-51
2022/10/31 00:14:31;;;;;;;;;;;;;;;12.20;73.48;101663.22;5068023;28;19978;-51
2022/10/31 00:16:56;;;;;;;;;;;;;;;12.22;73.20;101667.56;5061520;28;19921;-50
2022/10/31 00:19:22;;;;;;;;;;;;;;;12.17;73.41;101663.41;5066865;28;19920;-52
2022/10/31 00:21:47;;;;;;;;;;;;;;;12.10;73.69;101661.97;5069583;28;20411;-50
2022/10/31 00:24:12;;;;;;;;;;;;;;;12.04;73.77;101663.16;5074455;28;19916;-50
2022/10/31 00:26:38;;;;;;;;;;;;;;;12.03;73.78;101657.94;5065804;28;19924;-50
2022/10/31 00:29:03;;;;;;;;;;;;;;;12.05;74.08;101663.97;5073090;28;19971;-53
2022/10/31 00:31:29;;;;;;;;;;;;;;;12.07;73.67;101659.50;5071538;28;19924;-51
2022/10/31 00:33:54;;;;;;;;;;;;;;;12.09;73.78;101662.06;5067594;28;20022;-51
2022/10/31 00:36:20;;;;;;;;;;;;;;;12.08;73.70;101663.84;5077505;22;19933;-55
2022/10/31 00:38:46;;;;;;;;;;;;;;;12.07;73.59;101656.84;5048060;28;20425;-56
2022/10/31 00:41:12;;;;;;;;;;;;;;;12.05;73.82;101653.44;5047816;28;19917;-55
2022/10/31 00:43:37;;;;;;;;;;;;;;;12.02;73.72;101658.88;5052438;28;20383;-55
2022/10/31 00:46:02;;;;;;;;;;;;;;;12.01;73.97;101659.81;5034685;28;19932;-55
2022/10/31 00:48:28;;;;;;;;;;;;;;;12.01;73.77;101662.44;5029251;28;19957;-55
2022/10/31 00:50:54;;;;;;;;;;;;;;;12.01;73.74;101657.19;5027168;28;19917;-55
2022/10/31 00:53:19;;;;;;;;;;;;;;;12.02;73.90;101653.59;5027962;28;19917;-55
2022/10/31 00:55:44;;;;;;;;;;;;;;;12.02;73.67;101658.88;5028185;28;21498;-58
2022/10/31 00:58:10;;;;;;;;;;;;;;;12.02;73.83;101658.88;5027624;28;20355;-56
2022/10/31 01:00:35;;;;;;;;;;;;;;;12.03;73.67;101658.81;5027857;28;19925;-55
2022/10/31 01:03:00;;;;;;;;;;;;;;;12.03;73.63;101660.56;5026362;28;19921;-58
2022/10/31 01:05:26;;;;;;;;;;;;;;;11.98;73.61;101660.78;5026334;28;19928;-55
2022/10/31 01:07:51;;;;;;;;;;;;;;;11.98;73.86;101658.16;5024880;28;19968;-55
2022/10/31 01:10:17;;;;;;;;;;;;;;;11.95;73.85;101663.53;5026318;28;20067;-56
2022/10/31 01:12:44;;;;;;;;;;;;;;;11.93;73.77;101660.16;5030409;28;19928;-55
2022/10/31 01:15:11;;;;;;;;;;;;;;;11.90;73.90;101662.94;5029412;28;20384;-56
2022/10/31 01:17:36;;;;;;;;;;;;;;;11.89;74.12;101663.88;5026848;28;19921;-56
2022/10/31 01:20:02;;;;;;;;;;;;;;;11.88;73.90;101655.09;5035717;28;19940;-55
2022/10/31 01:22:27;;;;;;;;;;;;;;;11.88;74.00;101663.00;5030739;28;20291;-55
2022/10/31 01:24:53;;;;;;;;;;;;;;;11.89;73.97;101662.06;5025943;28;20372;-55
2022/10/31 01:27:18;;;;;;;;;;;;;;;11.88;73.79;101664.78;5023186;28;19929;-55
2022/10/31 01:29:43;;;;;;;;;;;;;;;11.86;73.82;101659.59;5024755;28;19944;-59
2022/10/31 01:32:09;;;;;;;;;;;;;;;11.84;74.21;101660.59;5011512;28;20268;-55
2022/10/31 01:34:34;;;;;;;;;;;;;;;11.81;73.86;101666.88;5027681;28;19925;-55
2022/10/31 01:36:59;;;;;;;;;;;;;;;11.80;73.90;101659.03;5034716;28;19924;-55
2022/10/31 01:39:24;;;;;;;;;;;;;;;11.80;73.90;101665.16;5028979;28;19939;-55
2022/10/31 01:41:51;;;;;;;;;;;;;;;11.78;73.75;101666.16;5026990;28;19928;-55
2022/10/31 01:44:16;;;;;;;;;;;;;;;11.79;73.79;101675.78;5021860;28;19917;-55
2022/10/31 01:46:42;;;;;;;;;;;;;;;11.74;73.53;101665.44;5027469;28;19928;-56
2022/10/31 01:49:18;;;;;;;;;;;;;;;11.71;73.58;101670.88;5026673;28;20415;-53
2022/10/31 01:51:47;;;;;;;;;;;;;;;11.74;73.78;101668.06;5028615;28;19921;-53
2022/10/31 01:54:15;;;;;;;;;;;;;;;11.75;73.45;101669.78;5027116;28;20039;-54
2022/10/31 01:56:45;;;;;;;;;;;;;;;11.71;73.54;101671.72;5029282;28;19925;-54
2022/10/31 01:59:12;;;;;;;;;;;;;;;11.68;74.09;101673.66;5030412;28;20786;-54
2022/10/31 02:01:38;;;;;;;;;;;;;;;11.67;74.04;101679.84;5027191;28;19976;-53
2022/10/31 02:04:03;;;;;;;;;;;;;;;11.66;73.97;101678.16;5027329;28;19913;-53
2022/10/31 02:06:47;;;;;;;;;;;;;;;11.64;74.08;101685.28;5025165;28;19933;-53
2022/10/31 02:09:13;;;;;;;;;;;;;;;11.63;74.14;101684.44;5029081;28;19925;-53
2022/10/31 02:11:40;;;;;;;;;;;;;;;11.62;74.19;101685.34;5013762;28;19996;-55
2022/10/31 02:14:05;;;;;;;;;;;;;;;11.61;74.05;101685.41;5029019;28;19925;-54
2022/10/31 02:16:31;;;;;;;;;;;;;;;11.60;73.89;101689.84;5028325;28;19921;-55
2022/10/31 02:18:56;;;;;;;;;;;;;;;11.61;74.02;101685.41;5032021;28;20067;-56
2022/10/31 02:21:30;;;;;;;;;;;;;;;11.60;74.13;101689.84;5028878;28;19923;-53
2022/10/31 02:23:58;;;;;;;;;;;;;;;11.58;74.08;101689.06;5027878;28;19929;-54
2022/10/31 02:26:41;;;;;;;;;;;;;;;11.58;74.07;101684.63;5027127;28;19928;-54
2022/10/31 02:29:30;;;;;;;;;;;;;;;11.59;74.13;101694.25;5024753;28;19925;-55
2022/10/31 02:31:58;;;;;;;;;;;;;;;11.60;73.99;101695.13;5025048;28;20029;-54
2022/10/31 02:34:26;;;;;;;;;;;;;;;11.62;73.67;101687.13;5037257;28;19962;-54
2022/10/31 02:37:09;;;;;;;;;;;;;;;11.62;73.49;101693.25;5032730;28;19919;-56
2022/10/31 02:39:38;;;;;;;;;;;;;;;11.60;73.23;101687.22;5028691;28;19932;-53
2022/10/31 02:42:16;;;;;;;;;;;;;;;11.55;73.05;101687.44;5026238;28;19924;-56
2022/10/31 02:44:45;;;;;;;;;;;;;;;11.51;72.65;101685.84;5031660;28;19925;-56
2022/10/31 02:47:15;;;;;;;;;;;;;;;11.46;72.80;101692.28;5028282;28;20364;-55
2022/10/31 02:49:59;;;;;;;;;;;;;;;11.44;72.73;101694.94;5026144;28;20019;-54
2022/10/31 02:52:25;;;;;;;;;;;;;;;11.42;72.92;101697.69;5032196;28;19917;-54
2022/10/31 02:54:51;;;;;;;;;;;;;;;11.42;73.09;101691.53;5030810;28;20366;-56
2022/10/31 02:57:20;;;;;;;;;;;;;;;11.41;73.15;101701.22;5025619;28;19917;-54
2022/10/31 02:59:51;;;;;;;;;;;;;;;11.41;73.11;101705.66;5029114;28;19931;-54
2022/10/31 03:02:36;;;;;;;;;;;;;;;11.38;73.28;101704.00;5031547;28;19932;-58
2022/10/31 03:05:20;;;;;;;;;;;;;;;11.33;73.33;101703.38;5029465;28;19925;-53
2022/10/31 03:07:46;;;;;;;;;;;;;;;11.33;73.42;101706.00;5027216;28;19928;-54
2022/10/31 03:10:11;;;;;;;;;;;;;;;11.31;73.32;101707.00;5032857;28;19913;-53
2022/10/31 03:13:09;;;;;;;;;;;;;;;11.31;73.41;101707.00;5015910;28;19913;-59
2022/10/31 03:15:36;;;;;;;;;;;;;;;11.30;73.30;101695.59;4981130;28;19924;-53
2022/10/31 03:18:01;;;;;;;;;;;;;;;11.28;73.36;101700.09;5031567;28;20398;-54
2022/10/31 03:20:34;;;;;;;;;;;;;;;11.27;73.36;101704.47;5029199;28;19925;-54
2022/10/31 03:23:00;;;;;;;;;;;;;;;11.23;73.10;101702.06;5028008;28;19920;-53
2022/10/31 03:25:27;;;;;;;;;;;;;;;11.22;73.38;101705.63;5022671;28;20633;-54
2022/10/31 03:27:52;;;;;;;;;;;;;;;11.22;73.08;101703.84;5025677;28;19929;-55
2022/10/31 03:30:18;;;;;;;;;;;;;;;11.24;73.00;101699.38;5025728;28;19921;-59
2022/10/31 03:32:46;;;;;;;;;;;;;;;11.26;72.87;101700.16;5029021;28;20342;-53
2022/10/31 03:35:14;;;;;;;;;;;;;;;11.26;72.71;101699.28;5032211;28;19925;-55
2022/10/31 03:37:40;;;;;;;;;;;;;;;11.23;72.56;101696.78;5030815;28;19917;-54
2022/10/31 03:40:07;;;;;;;;;;;;;;;11.20;72.60;101692.53;5013061;28;19918;-55
2022/10/31 03:42:34;;;;;;;;;;;;;;;11.17;72.64;101699.72;5029358;28;19971;-53
2022/10/31 03:45:04;;;;;;;;;;;;;;;11.15;72.73;101702.41;5028614;28;20392;-55
2022/10/31 03:47:30;;;;;;;;;;;;;;;11.13;72.65;101704.25;5031435;28;19924;-53
2022/10/31 03:49:56;;;;;;;;;;;;;;;11.10;72.66;101707.88;5033578;28;20067;-56
2022/10/31 03:52:21;;;;;;;;;;;;;;;11.09;72.57;101705.34;5033278;28;19992;-53
2022/10/31 03:54:52;;;;;;;;;;;;;;;11.07;72.63;101707.19;5030024;28;20019;-53
2022/10/31 03:57:29;;;;;;;;;;;;;;;11.07;72.65;101702.75;5030245;28;19921;-54
2022/10/31 03:59:58;;;;;;;;;;;;;;;11.05;72.71;101698.47;5033651;28;20011;-53
2022/10/31 04:02:27;;;;;;;;;;;;;;;10.95;72.57;101698.91;5030753;28;19917;-54
2022/10/31 04:04:53;;;;;;;;;;;;;;;10.92;72.83;101698.16;5026983;28;19964;-54
2022/10/31 04:07:20;;;;;;;;;;;;;;;10.94;72.59;101707.72;5027189;28;19960;-58
2022/10/31 04:09:46;;;;;;;;;;;;;;;10.93;72.49;101705.13;5034021;28;19929;-54
2022/10/31 04:12:14;;;;;;;;;;;;;;;10.92;72.71;101713.97;5026855;28;19924;-53
2022/10/31 04:14:41;;;;;;;;;;;;;;;10.94;72.61;101718.25;5027443;28;19932;-54
2022/10/31 04:17:09;;;;;;;;;;;;;;;10.92;72.25;101717.47;5040107;28;20289;-54
2022/10/31 04:19:34;;;;;;;;;;;;;;;10.85;72.63;101716.00;5025668;28;19956;-55
2022/10/31 04:22:00;;;;;;;;;;;;;;;10.87;72.65;101714.16;5027384;28;20367;-54
2022/10/31 04:24:25;;;;;;;;;;;;;;;10.87;72.66;101715.97;5025414;28;19920;-56
2022/10/31 04:26:50;;;;;;;;;;;;;;;10.86;72.51;101720.34;5012036;28;20371;-56
2022/10/31 04:29:15;;;;;;;;;;;;;;;10.85;72.50;101718.63;5027118;28;19931;-54
2022/10/31 04:31:41;;;;;;;;;;;;;;;10.87;72.47;101719.44;5028131;28;19925;-53
2022/10/31 04:34:07;;;;;;;;;;;;;;;10.87;72.41;101718.59;5031448;28;19931;-53
2022/10/31 04:36:32;;;;;;;;;;;;;;;10.88;72.67;101718.50;5033386;28;19925;-53
2022/10/31 04:38:58;;;;;;;;;;;;;;;10.84;72.85;101722.19;5029650;28;20019;-54
2022/10/31 04:41:23;;;;;;;;;;;;;;;10.84;72.65;101722.19;5023802;28;20008;-55
2022/10/31 04:43:48;;;;;;;;;;;;;;;10.86;72.72;101724.78;5023298;28;20012;-54
2022/10/31 04:46:14;;;;;;;;;;;;;;;10.87;72.84;101726.50;5021003;28;19929;-54
2022/10/31 04:48:39;;;;;;;;;;;;;;;10.84;72.54;101730.09;5027703;28;19917;-54
2022/10/31 04:51:04;;;;;;;;;;;;;;;10.80;72.69;101742.53;5027233;28;20586;-54
2022/10/31 04:53:30;;;;;;;;;;;;;;;10.77;72.88;101736.56;5028479;28;20012;-55
2022/10/31 04:55:57;;;;;;;;;;;;;;;10.75;73.11;101733.97;5028883;28;20347;-55
2022/10/31 04:58:22;;;;;;;;;;;;;;;10.77;73.08;101736.56;5031575;28;19966;-55
2022/10/31 05:00:51;;;;;;;;;;;;;;;10.75;73.20;101733.13;5024455;28;19984;-55
2022/10/31 05:03:16;;;;;;;;;;;;;;;10.74;73.11;101736.69;5026423;28;19943;-55
2022/10/31 05:05:41;;;;;;;;;;;;;;;10.75;73.36;101733.97;5026228;28;19921;-55
2022/10/31 05:08:07;;;;;;;;;;;;;;;10.75;73.20;101743.66;5014329;28;19921;-55
2022/10/31 05:10:32;;;;;;;;;;;;;;;10.72;73.17;101736.75;5026600;28;19921;-55
2022/10/31 05:12:59;;;;;;;;;;;;;;;10.70;72.93;101743.00;5023715;28;19940;-54
2022/10/31 05:15:25;;;;;;;;;;;;;;;10.66;73.22;101744.91;5026038;28;19943;-57
2022/10/31 05:17:51;;;;;;;;;;;;;;;10.63;73.06;101745.03;5026533;28;19951;-54
2022/10/31 05:20:17;;;;;;;;;;;;;;;10.61;73.02;101741.59;5030473;28;20401;-54
2022/10/31 05:22:44;;;;;;;;;;;;;;;10.60;73.22;101745.16;5024293;28;20011;-54
2022/10/31 05:25:09;;;;;;;;;;;;;;;10.58;73.11;101741.75;5025010;28;20300;-57
2022/10/31 05:27:37;;;;;;;;;;;;;;;10.56;72.99;101747.06;5029516;28;19929;-55
2022/10/31 05:30:03;;;;;;;;;;;;;;;10.55;73.13;101747.13;5032937;28;20436;-57
2022/10/31 05:32:29;;;;;;;;;;;;;;;10.54;73.03;101745.41;5016100;28;20058;-55
2022/10/31 05:34:54;;;;;;;;;;;;;;;10.52;73.05;101742.84;5016996;28;19921;-56
2022/10/31 05:37:20;;;;;;;;;;;;;;;10.52;73.12;101753.34;5018549;28;20343;-56
2022/10/31 05:39:45;;;;;;;;;;;;;;;10.52;73.04;101748.97;5023482;28;19922;-55
2022/10/31 05:42:10;;;;;;;;;;;;;;;10.52;72.84;101756.88;5024016;28;19971;-55
2022/10/31 05:44:36;;;;;;;;;;;;;;;10.54;73.02;101758.56;5021239;28;19928;-55
2022/10/31 05:47:01;;;;;;;;;;;;;;;10.55;72.98;101752.41;5021796;28;19925;-54
2022/10/31 05:49:26;;;;;;;;;;;;;;;10.57;73.46;101756.66;5027716;28;20004;-55
2022/10/31 05:51:52;;;;;;;;;;;;;;;10.58;73.82;101754.91;5031286;28;19936;-55
2022/10/31 05:54:17;;;;;;;;;;;;;;;10.58;74.49;101753.13;5027182;28;19913;-54
2022/10/31 05:56:42;;;;;;;;;;;;;;;10.59;74.55;101765.34;5024365;28;20420;-55
2022/10/31 05:59:07;;;;;;;;;;;;;;;10.62;74.58;101761.72;5011779;28;19948;-55
2022/10/31 06:01:33;;;;;;;;;;;;;;;10.62;74.82;101775.78;5027762;28;19925;-55
2022/10/31 06:03:58;;;;;;;;;;;;;;;10.64;74.70;101773.94;5021977;28;19964;-55
2022/10/31 06:06:23;;;;;;;;;;;;;;;10.65;74.92;101778.28;5023736;28;20293;-55
2022/10/31 06:08:49;;;;;;;;;;;;;;;10.71;74.75;101774.53;5032851;28;19928;-55
2022/10/31 06:11:14;;;;;;;;;;;;;;;10.75;74.98;101772.63;5023312;28;19952;-54
2022/10/31 06:13:39;;;;;;;;;;;;;;;10.79;75.31;101774.22;5017919;28;20297;-54
2022/10/31 06:16:04;;;;;;;;;;;;;;;10.83;75.13;101775.78;5018648;28;19929;-53
2022/10/31 06:18:30;;;;;;;;;;;;;;;10.87;75.16;101780.00;5020700;28;20020;-57
2022/10/31 06:20:55;;;;;;;;;;;;;;;10.93;74.89;101778.88;5023305;28;19995;-53
2022/10/31 06:23:20;;;;;;;;;;;;;;;10.95;75.06;101775.28;5024909;28;19917;-53
2022/10/31 06:25:49;;;;;;;;;;;;;;;10.96;75.18;101773.47;5018555;28;20016;-53
2022/10/31 06:28:17;;;;;;;;;;;;;;;10.97;75.20;101776.03;5023879;28;20299;-53
2022/10/31 06:30:42;;;;;;;;;;;;;;;11.00;75.13;101774.19;5026179;28;19924;-53
2022/10/31 06:33:07;;;;;;;;;;;;;;;11.03;74.93;101784.59;5031255;28;20533;-53
2022/10/31 06:35:33;;;;;;;;;;;;;;;11.07;74.83;101791.47;5026034;28;20265;-53
2022/10/31 06:37:58;;;;;;;;;;;;;;;11.08;74.32;101791.38;5023267;28;20395;-54
2022/10/31 06:40:23;;;;;;;;;;;;;;;11.11;74.20;101793.88;5030455;28;19925;-53
2022/10/31 06:43:00;;;;;;;;;;;;;;;11.15;74.50;101799.03;5029195;28;19932;-55
2022/10/31 06:45:26;;;;;;;;;;;;;;;11.19;74.65;101798.81;5027927;28;19967;-54
2022/10/31 06:47:52;;;;;;;;;;;;;;;11.24;74.69;101799.50;5030499;28;19925;-53
2022/10/31 06:50:18;;;;;;;;;;;;;;;11.30;74.92;101806.28;5029143;28;19920;-53
2022/10/31 06:52:49;;;;;;;;;;;;;;;11.36;75.09;101807.78;5024690;28;19921;-55
2022/10/31 06:55:14;;;;;;;;;;;;;;;11.40;75.15;101804.94;5027250;28;19921;-53
2022/10/31 06:57:39;;;;;;;;;;;;;;;11.44;75.00;101808.28;5026939;28;19932;-54
2022/10/31 07:00:05;;;;;;;;;;;;;;;11.46;75.06;101818.78;5006493;28;19948;-53
2022/10/31 07:02:30;;;;;;;;;;;;;;;11.49;75.22;101824.75;5024775;28;19917;-54
2022/10/31 07:04:56;;;;;;;;;;;;;;;11.52;75.85;101835.16;5028941;28;20383;-55
2022/10/31 07:07:21;;;;;;;;;;;;;;;11.57;75.95;101838.44;5027371;28;19963;-58
2022/10/31 07:09:46;;;;;;;;;;;;;;;11.62;76.09;101835.63;5024412;28;19951;-53
2022/10/31 07:12:12;;;;;;;;;;;;;;;11.70;76.17;101832.63;5025284;28;19921;-54
2022/10/31 07:14:37;;;;;;;;;;;;;;;11.79;75.73;101832.22;5028281;28;19921;-54
2022/10/31 07:17:02;;;;;;;;;;;;;;;11.87;76.06;101835.34;5032180;28;19945;-54
2022/10/31 07:19:28;;;;;;;;;;;;;;;11.96;76.13;101841.13;5025677;28;19921;-55
2022/10/31 07:21:53;;;;;;;;;;;;;;;12.03;75.88;101839.94;5023843;28;20025;-54
2022/10/31 07:24:18;;;;;;;;;;;;;;;12.12;75.94;101850.09;5031141;28;19925;-54
2022/10/31 07:26:47;;;;;;;;;;;;;;;12.21;75.86;101843.53;5021434;28;20304;-54
2022/10/31 07:29:12;;;;;;;;;;;;;;;12.30;76.61;101847.50;5027476;28;19924;-56
2022/10/31 07:31:37;;;;;;;;;;;;;;;12.39;76.73;101852.34;5029543;28;20391;-53
2022/10/31 07:34:03;;;;;;;;;;;;;;;12.45;76.82;101846.78;5030208;28;19924;-53
2022/10/31 07:36:28;;;;;;;;;;;;;;;12.50;77.26;101844.75;5029765;28;20451;-54
2022/10/31 07:38:53;;;;;;;;;;;;;;;12.59;77.05;101839.97;5035448;28;19956;-53
2022/10/31 07:41:19;;;;;;;;;;;;;;;12.69;77.52;101841.22;5032577;28;20372;-54
2022/10/31 07:43:44;;;;;;;;;;;;;;;12.78;77.57;101840.75;5030265;28;19921;-54
2022/10/31 07:46:11;;;;;;;;;;;;;;;12.88;77.45;101842.97;5028335;28;19928;-53
2022/10/31 07:48:36;;;;;;;;;;;;;;;12.95;77.50;101842.56;5027333;28;19921;-53
2022/10/31 07:51:01;;;;;;;;;;;;;;;13.04;77.45;101837.75;5019840;28;19928;-54
2022/10/31 07:53:27;;;;;;;;;;;;;;;13.13;77.25;101844.34;5029777;28;19928;-55
2022/10/31 07:55:52;;;;;;;;;;;;;;;13.20;77.26;101843.13;5026918;28;19925;-54
2022/10/31 07:58:18;;;;;;;;;;;;;;;13.28;77.18;101840.94;5028756;28;19917;-54
2022/10/31 08:00:44;;;;;;;;;;;;;;;13.34;77.20;101840.63;5031659;28;19964;-56
2022/10/31 08:03:11;;;;;;;;;;;;;;;13.41;77.13;101847.31;5028865;28;19920;-54
2022/10/31 08:05:37;;;;;;;;;;;;;;;13.49;76.95;101848.72;5015370;28;19917;-56
2022/10/31 08:08:03;;;;;;;;;;;;;;;13.54;77.08;101854.59;5029944;28;20052;-56
2022/10/31 08:10:28;;;;;;;;;;;;;;;13.59;77.11;101862.31;5026965;28;19995;-54
2022/10/31 08:12:58;;;;;;;;;;;;;;;13.62;76.90;101864.78;5018998;28;20384;-54
2022/10/31 08:15:23;;;;;;;;;;;;;;;13.65;76.94;101869.91;5023243;28;19935;-54
2022/10/31 08:17:48;;;;;;;;;;;;;;;13.69;76.65;101866.19;5022689;28;20023;-54
2022/10/31 08:20:14;;;;;;;;;;;;;;;13.70;76.69;101866.06;5024944;28;19917;-56
2022/10/31 08:22:39;;;;;;;;;;;;;;;13.71;77.02;101859.84;5016936;28;19921;-53
2022/10/31 08:25:05;;;;;;;;;;;;;;;13.74;76.70;101866.78;5022595;28;19929;-57
2022/10/31 08:27:30;;;;;;;;;;;;;;;13.75;76.69;101860.56;5019420;28;20407;-55
2022/10/31 08:29:55;;;;;;;;;;;;;;;13.79;76.54;101864.72;5027795;28;19968;-57
2022/10/31 08:32:21;;;;;;;;;;;;;;;13.79;76.60;101867.38;5025508;28;19927;-54
2022/10/31 08:34:46;;;;;;;;;;;;;;;13.79;76.94;101862.09;5022613;28;19921;-59
2022/10/31 08:37:11;;;;;;;;;;;;;;;13.79;76.96;101862.09;5024742;28;20356;-54
2022/10/31 08:39:36;;;;;;;;;;;;;;;13.80;77.06;101860.31;5015872;28;20005;-54
2022/10/31 08:42:02;;;;;;;;;;;;;;;13.81;76.98;101867.31;5024317;28;19925;-54
2022/10/31 08:44:27;;;;;;;;;;;;;;;13.81;77.30;101870.81;5021953;28;20377;-54
2022/10/31 08:46:53;;;;;;;;;;;;;;;13.84;77.54;101877.75;5019545;28;20003;-55
2022/10/31 08:49:18;;;;;;;;;;;;;;;13.86;77.56;101873.19;5024348;28;19965;-54
2022/10/31 08:51:46;;;;;;;;;;;;;;;13.85;78.02;101877.66;5026456;28;20002;-56
2022/10/31 08:54:12;;;;;;;;;;;;;;;13.85;78.00;101874.13;5020071;28;19917;-54
2022/10/31 08:56:37;;;;;;;;;;;;;;;13.87;77.84;101877.56;5009380;28;19932;-54
2022/10/31 08:59:02;;;;;;;;;;;;;;;13.91;77.93;101876.47;5024379;28;19929;-53
2022/10/31 09:01:28;;;;;;;;;;;;;;;13.94;78.20;101871.00;5011181;28;19929;-53
2022/10/31 09:03:53;;;;;;;;;;;;;;;13.96;78.05;101871.78;5024551;28;19932;-56
2022/10/31 09:06:18;;;;;;;;;;;;;;;13.98;78.42;101872.56;5023529;28;20401;-54
2022/10/31 09:08:44;;;;;;;;;;;;;;;14.02;78.36;101870.59;5021159;28;19929;-54
2022/10/31 09:11:09;;;;;;;;;;;;;;;14.05;78.27;101869.56;5023207;28;19921;-55
2022/10/31 09:13:34;;;;;;;;;;;;;;;14.09;78.14;101879.91;5021661;28;19925;-53
2022/10/31 09:15:59;;;;;;;;;;;;;;;14.13;78.29;101878.78;5021799;28;19925;-54
2022/10/31 09:18:27;;;;;;;;;;;;;;;14.15;78.51;101878.69;5028973;28;20011;-56
2022/10/31 09:20:53;;;;;;;;;;;;;;;14.19;78.34;101877.59;5009157;28;19932;-55
2022/10/31 09:23:19;;;;;;;;;;;;;;;14.22;78.70;101885.38;5019387;28;19926;-59
2022/10/31 09:25:45;;;;;;;;;;;;;;;14.27;78.61;101887.78;5018201;28;20012;-55
2022/10/31 09:28:12;;;;;;;;;;;;;;;14.33;78.40;101887.44;5005006;28;20681;-58
2022/10/31 09:30:37;;;;;;;;;;;;;;;14.38;78.39;101885.38;5010182;28;19968;-56
2022/10/31 09:33:04;;;;;;;;;;;;;;;14.43;78.44;101890.44;5028346;28;20006;-56
2022/10/31 09:35:29;;;;;;;;;;;;;;;14.48;78.54;101894.53;5023661;28;20079;-56
2022/10/31 09:37:58;;;;;;;;;;;;;;;14.53;78.67;101898.69;5022055;28;20371;-55
2022/10/31 09:40:26;;;;;;;;;;;;;;;14.57;78.46;101900.25;5025409;28;19952;-55
2022/10/31 09:42:55;;;;;;;;;;;;;;;14.61;78.49;101896.47;5022721;28;19925;-55
2022/10/31 09:45:26;;;;;;;;;;;;;;;14.66;78.56;101899.75;5020952;28;20000;-56
2022/10/31 09:48:03;;;;;;;;;;;;;;;14.70;78.47;101897.78;5025886;28;20063;-53
2022/10/31 09:50:31;;;;;;;;;;;;;;;14.76;78.99;101892.13;5018606;28;19925;-54
2022/10/31 09:53:05;;;;;;;;;;;;;;;14.83;78.54;101889.97;5019579;28;20324;-53
2022/10/31 09:55:39;;;;;;;;;;;;;;;14.88;78.59;101888.78;5017032;28;19964;-53
2022/10/31 09:58:05;;;;;;;;;;;;;;;14.93;78.67;101897.31;5008795;28;19925;-53
2022/10/31 10:00:31;;;;;;;;;;;;;;;14.97;78.61;101898.00;4982359;28;19929;-53
2022/10/31 10:03:26;;;;;;;;;;;;;;;15.02;78.77;101889.78;5003019;28;20046;-54
2022/10/31 10:06:02;;;;;;;;;;;;;;;15.08;78.65;101897.38;4992732;28;19924;-54
2022/10/31 10:19:07;;;;;;;;;;;;;;;15.29;78.57;101897.06;5652678;22;19928;-56
2022/10/31 10:21:51;;;;;;;;;;;;;;;15.33;78.72;101903.88;5014688;28;21534;-57
2022/10/31 10:24:26;;;;;;;;;;;;;;;15.36;78.57;101901.03;5028135;28;19927;-56
2022/10/31 10:27:10;;;;;;;;;;;;;;;15.38;78.40;101900.00;5027249;28;19967;-55
2022/10/31 10:29:56;;;;;;;;;;;;;;;15.42;78.52;101905.97;5010032;28;20676;-58
2022/10/31 10:32:28;;;;;;;;;;;;;;;15.46;79.14;101898.69;4994701;28;20018;-55
2022/10/31 10:35:02;;;;;;;;;;;;;;;15.51;78.91;101891.31;4993551;28;19921;-57
2022/10/31 10:37:27;;;;;;;;;;;;;;;15.57;78.94;101903.34;4999069;28;19976;-52
2022/10/31 10:39:55;;;;;;;;;;;;;;;15.61;78.56;101904.88;4999369;28;20392;-53
2022/10/31 10:48:22;;;;;;;;;;;;;;;15.76;78.12;101895.97;4995778;28;20300;-53
2022/10/31 10:50:49;;;;;;;;;;;;;;;15.82;77.65;101895.59;4993907;28;20364;-55
2022/10/31 10:53:21;;;;;;;;;;;;;;;15.88;77.25;101890.88;4991696;28;19935;-55
2022/10/31 10:55:56;;;;;;;;;;;;;;;15.92;76.96;101885.28;4996498;28;20384;-57
2022/10/31 10:58:22;;;;;;;;;;;;;;;15.99;76.96;101886.63;4998207;28;20050;-53
2022/10/31 11:00:49;;;;;;;;;;;;;;;16.03;76.87;101884.63;5001316;28;19946;-53
2022/10/31 11:03:15;;;;;;;;;;;;;;;16.08;76.49;101893.16;4996226;28;20299;-53
2022/10/31 11:05:44;;;;;;;;;;;;;;;16.13;76.30;101888.41;5000263;28;20303;-54
2022/10/31 11:08:10;;;;;;;;;;;;;;;16.18;76.21;101884.59;4995985;28;19925;-56
2022/10/31 11:10:35;;;;;;;;;;;;;;;16.23;76.16;101890.50;4995485;28;19925;-53
2022/10/31 11:13:03;;;;;;;;;;;;;;;16.28;75.87;101885.72;4999437;28;19925;-57
2022/10/31 11:15:30;;;;;;;;;;;;;;;16.33;75.92;101888.94;5004896;28;20012;-55
2022/10/31 11:17:56;;;;;;;;;;;;;;;16.34;75.90;101890.66;5002113;28;20010;-53
2022/10/31 11:20:24;;;;;;;;;;;;;;;16.38;76.11;101884.19;5001621;28;19933;-56
2022/10/31 11:23:00;;;;;;;;;;;;;;;16.40;75.75;101884.94;5002857;28;19925;-57
2022/10/31 11:25:26;;;;;;;;;;;;;;;16.45;75.81;101882.84;5015727;28;19978;-52
2022/10/31 11:28:01;;;;;;;;;;;;;;;16.46;75.68;101878.38;5007088;28;20921;-52
2022/10/31 11:30:27;;;;;;;;;;;;;;;16.51;75.78;101875.44;5005729;28;19925;-53
2022/10/31 11:32:53;;;;;;;;;;;;;;;16.53;75.60;101873.53;5029300;28;19932;-52
2022/10/31 11:35:20;;;;;;;;;;;;;;;16.55;75.52;101879.59;5028569;28;21023;-53
2022/10/31 11:37:46;;;;;;;;;;;;;;;16.56;75.25;101866.19;5029759;28;20051;-54
2022/10/31 11:40:20;;;;;;;;;;;;;;;16.60;75.11;101866.84;5023286;28;19921;-54
2022/10/31 11:42:45;;;;;;;;;;;;;;;16.65;75.32;101861.22;5035113;28;20330;-53
2022/10/31 11:45:16;;;;;;;;;;;;;;;16.68;75.10;101864.56;5029616;28;20013;-56
2022/10/31 11:47:43;;;;;;;;;;;;;;;16.71;75.19;101863.50;5028998;28;19928;-54
2022/10/31 11:50:10;;;;;;;;;;;;;;;16.75;75.15;101865.84;5027505;28;20078;-57
2022/10/31 11:52:37;;;;;;;;;;;;;;;16.78;75.04;101862.16;5029673;28;19957;-59
2022/10/31 11:55:03;;;;;;;;;;;;;;;16.81;75.27;101867.22;5026041;28;19920;-60
2022/10/31 11:57:32;;;;;;;;;;;;;;;16.82;74.77;101865.44;5026192;28;20257;-59
2022/10/31 11:59:59;;;;;;;;;;;;;;;16.89;74.96;101864.06;5029203;28;19925;-60
2022/10/31 12:02:25;;;;;;;;;;;;;;;16.93;74.88;101865.56;5034991;28;19924;-60
2022/10/31 12:04:53;;;;;;;;;;;;;;;16.97;74.79;101867.09;5024884;28;19928;-53
2022/10/31 12:07:19;;;;;;;;;;;;;;;16.99;74.58;101869.66;5030655;28;19971;-61
2022/10/31 12:09:44;;;;;;;;;;;;;;;17.02;74.46;101864.97;5028518;28;19960;-55
2022/10/31 12:12:29;;;;;;;;;;;;;;;17.06;74.01;101866.47;5016881;28;19925;-58
2022/10/31 12:15:11;;;;;;;;;;;;;;;17.11;74.51;101862.66;5008942;28;19921;-57
2022/10/31 12:18:09;;;;;;;;;;;;;;;17.15;74.42;101864.16;5008447;28;19983;-55
2022/10/31 12:20:41;;;;;;;;;;;;;;;17.19;74.22;101866.50;4983659;28;21897;-59
2022/10/31 12:23:10;;;;;;;;;;;;;;;17.23;74.16;101866.31;5002456;28;20016;-55
2022/10/31 12:25:44;;;;;;;;;;;;;;;17.28;74.23;101870.34;5011653;28;19932;-57
2022/10/31 12:28:28;;;;;;;;;;;;;;;17.30;73.76;101865.78;5023203;28;20408;-56
2022/10/31 12:31:03;;;;;;;;;;;;;;;17.33;73.78;101865.53;5024659;28;19987;-54
2022/10/31 12:33:31;;;;;;;;;;;;;;;17.36;73.56;101865.34;5037773;28;19959;-58
2022/10/31 12:36:17;;;;;;;;;;;;;;;17.36;73.59;101860.03;5037764;28;20003;-58
2022/10/31 12:39:08;;;;;;;;;;;;;;;17.36;73.25;101862.69;5019844;28;20071;-55
2022/10/31 12:41:36;;;;;;;;;;;;;;;17.45;73.41;101860.34;4991447;28;19963;-55
2022/10/31 12:44:01;;;;;;;;;;;;;;;17.47;72.84;101863.78;5029237;28;19917;-54
2022/10/31 12:46:33;;;;;;;;;;;;;;;17.45;72.75;101871.00;5024280;28;19998;-58
2022/10/31 12:49:13;;;;;;;;;;;;;;;17.48;72.78;101866.31;5016799;28;19939;-53
2022/10/31 12:51:47;;;;;;;;;;;;;;;17.54;73.05;101862.38;5024134;28;19936;-54
2022/10/31 12:54:21;;;;;;;;;;;;;;;17.58;72.87;101855.00;5024940;28;20587;-54
2022/10/31 12:57:06;;;;;;;;;;;;;;;17.61;73.11;101855.66;5026922;28;19932;-56